createdAt,value
2022-08-28T00:00:46.836Z,9.747434
2022-08-28T00:01:46.800Z,9.747324
2022-08-28T00:02:46.866Z,9.747384
2022-08-28T00:03:46.786Z,9.747260
2022-08-28T00:04:46.944Z,9.747341
2022-08-28T00:05:46.816Z,9.747421
2022-08-28T00:06:46.765Z,9.747422
2022-08-28T00:07:47.955Z,9.747492
2022-08-28T00:08:47.750Z,9.747491
2022-08-28T00:09:46.734Z,9.747545
2022-08-28T00:10:46.755Z,9.747547
2022-08-28T00:11:46.736Z,9.747424
2022-08-28T00:12:46.710Z,9.747484
2022-08-28T00:13:46.703Z,9.747307
2022-08-28T00:14:46.712Z,9.747364
2022-08-28T00:15:46.761Z,9.747281
2022-08-28T00:16:46.682Z,9.747313
2022-08-28T00:17:46.680Z,9.747462
2022-08-28T00:18:47.102Z,9.747404
2022-08-28T00:19:46.659Z,9.747309
2022-08-28T00:20:46.676Z,9.747143
2022-08-28T00:21:46.646Z,9.746953
2022-08-28T00:22:46.640Z,9.747244
2022-08-28T00:23:46.627Z,9.747221
2022-08-28T00:24:46.623Z,9.747419
2022-08-28T00:25:46.641Z,9.747348
2022-08-28T00:26:46.619Z,9.747304
2022-08-28T00:27:46.598Z,9.747335
2022-08-28T00:28:46.589Z,9.747335
2022-08-28T00:29:46.580Z,9.747435
2022-08-28T00:30:46.606Z,9.747378
2022-08-28T00:31:46.618Z,9.747333
2022-08-28T00:32:46.557Z,9.747382
2022-08-28T00:33:48.199Z,9.747188
2022-08-28T00:34:47.543Z,9.747173
2022-08-28T00:35:46.559Z,9.747466
2022-08-28T00:36:46.534Z,9.747265
2022-08-28T00:37:46.531Z,9.747339
2022-08-28T00:38:46.515Z,9.747388
2022-08-28T00:39:46.517Z,9.747310
2022-08-28T00:40:46.556Z,9.747330
2022-08-28T00:41:46.492Z,9.747351
2022-08-28T00:42:46.484Z,9.747375
2022-08-28T00:43:46.474Z,9.747415
2022-08-28T00:44:46.475Z,9.747454
2022-08-28T00:45:46.491Z,9.747346
2022-08-28T00:46:46.511Z,9.747298
2022-08-28T00:47:46.447Z,9.747310
2022-08-28T00:48:46.438Z,9.747284
2022-08-28T00:49:46.429Z,9.747488
2022-08-28T00:50:46.420Z,9.747488
2022-08-28T00:51:46.439Z,9.747395
2022-08-28T00:52:46.403Z,9.747455
2022-08-28T00:53:46.400Z,9.747356
2022-08-28T00:54:58.936Z,9.747435
2022-08-28T00:55:47.375Z,9.747436
2022-08-28T00:56:46.394Z,9.747407
2022-08-28T00:57:46.366Z,9.747470
2022-08-28T00:58:46.355Z,9.747507
2022-08-28T00:59:46.345Z,9.747415
2022-08-28T01:00:46.340Z,9.747398
2022-08-28T01:01:46.554Z,9.747381
2022-08-28T01:02:46.394Z,9.747432
2022-08-28T01:03:46.316Z,9.747401
2022-08-28T01:04:46.308Z,9.747474
2022-08-28T01:05:46.301Z,9.747401
2022-08-28T01:06:46.318Z,9.747392
2022-08-28T01:07:46.282Z,9.747345
2022-08-28T01:08:46.280Z,9.747444
2022-08-28T01:09:46.275Z,9.747351
2022-08-28T01:10:46.261Z,9.747462
2022-08-28T01:11:46.278Z,9.747430
2022-08-28T01:12:46.249Z,9.747484
2022-08-28T01:13:46.238Z,9.747396
2022-08-28T01:14:46.229Z,9.747407
2022-08-28T01:15:46.248Z,9.747376
2022-08-28T01:16:46.240Z,9.747369
2022-08-28T01:17:46.207Z,9.747405
2022-08-28T01:18:46.194Z,9.747346
2022-08-28T01:19:46.190Z,9.747454
2022-08-28T01:20:46.182Z,9.747500
2022-08-28T01:21:46.198Z,9.747468
2022-08-28T01:22:46.168Z,9.747439
2022-08-28T01:23:46.155Z,9.747452
2022-08-28T01:24:46.154Z,9.747445
2022-08-28T01:25:46.132Z,9.747455
2022-08-28T01:26:47.164Z,9.747450
2022-08-28T01:27:46.121Z,9.747435
2022-08-28T01:28:46.116Z,9.747438
2022-08-28T01:29:48.012Z,9.747479
2022-08-28T01:30:46.153Z,9.747474
2022-08-28T01:31:46.124Z,9.747393
2022-08-28T01:32:46.085Z,9.747499
2022-08-28T01:33:46.078Z,9.747437
2022-08-28T01:34:46.072Z,9.747462
2022-08-28T01:35:46.063Z,9.747437
2022-08-28T01:36:46.090Z,9.747519
2022-08-28T01:37:46.047Z,9.747511
2022-08-28T01:38:46.036Z,9.747397
2022-08-28T01:39:46.034Z,9.747497
2022-08-28T01:40:46.022Z,9.747550
2022-08-28T01:41:47.038Z,9.747447
2022-08-28T01:42:46.012Z,9.747352
2022-08-28T01:43:46.002Z,9.747506
2022-08-28T01:44:45.994Z,9.747498
2022-08-28T01:45:45.988Z,9.747419
2022-08-28T01:46:46.111Z,9.747498
2022-08-28T01:47:45.972Z,9.747453
2022-08-28T01:48:45.967Z,9.747458
2022-08-28T01:49:45.981Z,9.747425
2022-08-28T01:50:45.946Z,9.747416
2022-08-28T01:51:45.971Z,9.747469
2022-08-28T01:52:45.934Z,9.747555
2022-08-28T01:53:46.632Z,9.747437
2022-08-28T01:54:45.921Z,9.747452
2022-08-28T01:55:45.910Z,9.747445
2022-08-28T01:56:45.931Z,9.747450
2022-08-28T01:58:18.401Z,9.747363
2022-08-28T01:58:45.891Z,9.747465
2022-08-28T01:59:45.882Z,9.747542
2022-08-28T02:00:45.869Z,9.747499
2022-08-28T02:01:45.955Z,9.747413
2022-08-28T02:02:45.860Z,9.747459
2022-08-28T02:03:45.944Z,9.747478
2022-08-28T02:04:48.158Z,9.747478
2022-08-28T02:05:46.840Z,9.747484
2022-08-28T02:06:45.870Z,9.747452
2022-08-28T02:07:45.823Z,9.747444
2022-08-28T02:08:45.805Z,9.747490
2022-08-28T02:09:46.816Z,9.747532
2022-08-28T02:10:45.801Z,9.747696
2022-08-28T02:11:46.812Z,9.747602
2022-08-28T02:12:45.790Z,9.747561
2022-08-28T02:13:45.778Z,9.747499
2022-08-28T02:14:46.785Z,9.747375
2022-08-28T02:15:45.906Z,9.747437
2022-08-28T02:16:45.793Z,9.747534
2022-08-28T02:17:45.747Z,9.747417
2022-08-28T02:18:45.740Z,9.747344
2022-08-28T02:19:45.737Z,9.747509
2022-08-28T02:20:45.719Z,9.747459
2022-08-28T02:21:45.731Z,9.747458
2022-08-28T02:22:45.736Z,9.747478
2022-08-28T02:23:45.710Z,9.747442
2022-08-28T02:24:45.696Z,9.747533
2022-08-28T02:25:45.692Z,9.747434
2022-08-28T02:26:45.680Z,9.747407
2022-08-28T02:27:45.703Z,9.747365
2022-08-28T02:28:45.665Z,9.747303
2022-08-28T02:29:45.663Z,9.747338
2022-08-28T02:30:45.690Z,9.747332
2022-08-28T02:31:45.654Z,9.747257
2022-08-28T02:32:45.664Z,9.747323
2022-08-28T02:33:45.629Z,9.747280
2022-08-28T02:34:45.623Z,9.747313
2022-08-28T02:35:45.609Z,9.747345
2022-08-28T02:36:45.607Z,9.747311
2022-08-28T02:37:45.638Z,9.747330
2022-08-28T02:38:45.593Z,9.747430
2022-08-28T02:39:45.585Z,9.747418
2022-08-28T02:40:45.579Z,9.747403
2022-08-28T02:41:45.568Z,9.747465
2022-08-28T02:42:45.583Z,9.747556
2022-08-28T02:43:45.568Z,9.747652
2022-08-28T02:44:45.544Z,9.747472
2022-08-28T02:45:45.569Z,9.747469
2022-08-28T02:46:45.534Z,9.747464
2022-08-28T02:47:45.549Z,9.747551
2022-08-28T02:48:45.510Z,9.747457
2022-08-28T02:49:45.505Z,9.747387
2022-08-28T02:50:45.495Z,9.747386
2022-08-28T02:51:45.494Z,9.747478
2022-08-28T02:52:45.518Z,9.747466
2022-08-28T02:53:45.477Z,9.747443
2022-08-28T02:54:45.474Z,9.747425
2022-08-28T02:55:45.460Z,9.747471
2022-08-28T02:56:45.491Z,9.747528
2022-08-28T02:57:45.464Z,9.747475
2022-08-28T02:58:46.442Z,9.747445
2022-08-28T02:59:45.432Z,9.747519
2022-08-28T03:00:45.421Z,9.747442
2022-08-28T03:01:45.458Z,9.747392
2022-08-28T03:02:45.603Z,9.747413
2022-08-28T03:03:45.396Z,9.747412
2022-08-28T03:04:45.388Z,9.747451
2022-08-28T03:05:45.387Z,9.747449
2022-08-28T03:06:45.374Z,9.747478
2022-08-28T03:07:45.396Z,9.747537
2022-08-28T03:08:45.358Z,9.747529
2022-08-28T03:09:45.345Z,9.747496
2022-08-28T03:10:45.346Z,9.747504
2022-08-28T03:11:45.333Z,9.747495
2022-08-28T03:12:45.353Z,9.747539
2022-08-28T03:13:45.316Z,9.747600
2022-08-28T03:14:45.309Z,9.747517
2022-08-28T03:15:45.311Z,9.747563
2022-08-28T03:16:45.327Z,9.747562
2022-08-28T03:17:45.312Z,9.747420
2022-08-28T03:18:45.296Z,9.747520
2022-08-28T03:19:45.282Z,9.747572
2022-08-28T03:20:45.264Z,9.747499
2022-08-28T03:21:45.258Z,9.747448
2022-08-28T03:22:45.276Z,9.747493
2022-08-28T03:23:45.245Z,9.747515
2022-08-28T03:24:45.241Z,9.747497
2022-08-28T03:25:45.235Z,9.747597
2022-08-28T03:26:45.223Z,9.747525
2022-08-28T03:27:45.252Z,9.747496
2022-08-28T03:28:45.208Z,9.747473
2022-08-28T03:29:45.203Z,9.747416
2022-08-28T03:30:45.270Z,9.747513
2022-08-28T03:31:45.178Z,9.747508
2022-08-28T03:32:45.173Z,9.747491
2022-08-28T03:33:45.190Z,9.747516
2022-08-28T03:34:45.152Z,9.747441
2022-08-28T03:35:45.151Z,9.747531
2022-08-28T03:36:45.138Z,9.747633
2022-08-28T03:37:45.162Z,9.747418
2022-08-28T03:38:45.128Z,9.747469
2022-08-28T03:39:45.126Z,9.747534
2022-08-28T03:40:45.112Z,9.747456
2022-08-28T03:41:45.103Z,9.747492
2022-08-28T03:42:51.312Z,9.747446
2022-08-28T03:43:46.095Z,9.747487
2022-08-28T03:44:45.085Z,9.747480
2022-08-28T03:45:45.125Z,9.747469
2022-08-28T03:46:45.072Z,9.747467
2022-08-28T03:47:45.079Z,9.747425
2022-08-28T03:48:45.093Z,9.747591
2022-08-28T03:49:45.042Z,9.747600
2022-08-28T03:50:45.036Z,9.747486
2022-08-28T03:51:45.025Z,9.747547
2022-08-28T03:52:45.052Z,9.747574
2022-08-28T03:53:45.018Z,9.747510
2022-08-28T03:54:45.013Z,9.747555
2022-08-28T03:55:44.991Z,9.747492
2022-08-28T03:56:44.990Z,9.747425
2022-08-28T03:57:45.005Z,9.747419
2022-08-28T03:58:44.978Z,9.747368
2022-08-28T03:59:44.963Z,9.747347
2022-08-28T04:00:44.958Z,9.747381
2022-08-28T04:01:45.004Z,9.747450
2022-08-28T04:02:44.979Z,9.747525
2022-08-28T04:03:45.000Z,9.747398
2022-08-28T04:04:44.929Z,9.747387
2022-08-28T04:05:44.917Z,9.747396
2022-08-28T04:06:44.911Z,9.747306
2022-08-28T04:07:44.935Z,9.747377
2022-08-28T04:08:44.902Z,9.747440
2022-08-28T04:09:44.883Z,9.747339
2022-08-28T04:10:44.881Z,9.747351
2022-08-28T04:11:44.869Z,9.747456
2022-08-28T04:12:44.894Z,9.747448
2022-08-28T04:13:44.851Z,9.747395
2022-08-28T04:14:44.849Z,9.747300
2022-08-28T04:15:44.838Z,9.747356
2022-08-28T04:16:44.877Z,9.747417
2022-08-28T04:17:44.866Z,9.747452
2022-08-28T04:18:44.830Z,9.747479
2022-08-28T04:19:44.815Z,9.747409
2022-08-28T04:20:46.421Z,9.747559
2022-08-28T04:21:44.806Z,9.747353
2022-08-28T04:22:45.255Z,9.747409
2022-08-28T04:23:44.782Z,9.747386
2022-08-28T04:24:44.775Z,9.747377
2022-08-28T04:25:44.764Z,9.747355
2022-08-28T04:26:44.757Z,9.747355
2022-08-28T04:27:44.779Z,9.747397
2022-08-28T04:28:44.743Z,9.747425
2022-08-28T04:29:44.737Z,9.747316
2022-08-28T04:30:44.729Z,9.747303
2022-08-28T04:31:44.746Z,9.747286
2022-08-28T04:32:44.741Z,9.747381
2022-08-28T04:33:44.707Z,9.747435
2022-08-28T04:34:44.689Z,9.747434
2022-08-28T04:35:44.691Z,9.747483
2022-08-28T04:36:44.681Z,9.747480
2022-08-28T04:37:44.674Z,9.747474
2022-08-28T04:38:44.687Z,9.747493
2022-08-28T04:39:44.657Z,9.747386
2022-08-28T04:40:44.654Z,9.747408
2022-08-28T04:41:44.635Z,9.747214
2022-08-28T04:42:44.645Z,9.747381
2022-08-28T04:43:44.649Z,9.747281
2022-08-28T04:44:44.633Z,9.747331
2022-08-28T04:45:44.678Z,9.747292
2022-08-28T04:46:44.604Z,9.747292
2022-08-28T04:47:44.593Z,9.747345
2022-08-28T04:48:44.616Z,9.747359
2022-08-28T04:49:44.585Z,9.747331
2022-08-28T04:50:44.572Z,9.747383
2022-08-28T04:51:44.565Z,9.747377
2022-08-28T04:52:44.556Z,9.747450
2022-08-28T04:53:44.576Z,9.747394
2022-08-28T04:54:44.547Z,9.747401
2022-08-28T04:55:53.919Z,9.747283
2022-08-28T04:56:45.544Z,9.747364
2022-08-28T04:57:44.518Z,9.747379
2022-08-28T04:58:44.548Z,9.747366
2022-08-28T04:59:44.502Z,9.747352
2022-08-28T05:00:44.548Z,9.747327
2022-08-28T05:01:44.499Z,9.747348
2022-08-28T05:02:44.480Z,9.747389
2022-08-28T05:03:44.497Z,9.747363
2022-08-28T05:04:44.467Z,9.747415
2022-08-28T05:05:44.462Z,9.747395
2022-08-28T05:06:44.452Z,9.747388
2022-08-28T05:07:45.012Z,9.747369
2022-08-28T05:08:44.466Z,9.747313
2022-08-28T05:09:44.431Z,9.747339
2022-08-28T05:10:44.426Z,9.747297
2022-08-28T05:11:44.415Z,9.747492
2022-08-28T05:12:44.402Z,9.747413
2022-08-28T05:13:44.426Z,9.747227
2022-08-28T05:14:44.395Z,9.747303
2022-08-28T05:15:44.385Z,9.747334
2022-08-28T05:16:44.461Z,9.747320
2022-08-28T05:17:44.373Z,9.747315
2022-08-28T05:18:44.386Z,9.747328
2022-08-28T05:19:44.358Z,9.747400
2022-08-28T05:20:44.338Z,9.747372
2022-08-28T05:21:45.340Z,9.747231
2022-08-28T05:22:44.338Z,9.747372
2022-08-28T05:23:44.354Z,9.747370
2022-08-28T05:24:44.321Z,9.747229
2022-08-28T05:25:44.316Z,9.747263
2022-08-28T05:26:44.303Z,9.747293
2022-08-28T05:27:44.311Z,9.747387
2022-08-28T05:28:44.312Z,9.747248
2022-08-28T05:29:44.277Z,9.747244
2022-08-28T05:30:44.266Z,9.747228
2022-08-28T05:31:44.304Z,9.747243
2022-08-28T05:32:44.257Z,9.747315
2022-08-28T05:33:44.275Z,9.747355
2022-08-28T05:34:44.236Z,9.747411
2022-08-28T05:35:44.229Z,9.747365
2022-08-28T05:36:44.217Z,9.747331
2022-08-28T05:37:44.213Z,9.747259
2022-08-28T05:38:44.233Z,9.747342
2022-08-28T05:39:44.216Z,9.747153
2022-08-28T05:40:44.224Z,9.747213
2022-08-28T05:41:44.202Z,9.747144
2022-08-28T05:42:44.174Z,9.747230
2022-08-28T05:43:44.201Z,9.747273
2022-08-28T05:44:44.156Z,9.747315
2022-08-28T05:45:44.222Z,9.747284
2022-08-28T05:46:44.166Z,9.747277
2022-08-28T05:47:44.138Z,9.747198
2022-08-28T05:48:44.126Z,9.747213
2022-08-28T05:49:44.434Z,9.747328
2022-08-28T05:50:47.275Z,9.747340
2022-08-28T05:51:44.103Z,9.747289
2022-08-28T05:52:44.102Z,9.747376
2022-08-28T05:53:44.087Z,9.747404
2022-08-28T05:54:44.431Z,9.747364
2022-08-28T05:55:44.073Z,9.747294
2022-08-28T05:56:44.075Z,9.747315
2022-08-28T05:57:44.058Z,9.747359
2022-08-28T05:58:44.056Z,9.747314
2022-08-28T05:59:44.072Z,9.747367
2022-08-28T06:00:44.040Z,9.747338
2022-08-28T06:01:44.113Z,9.747236
2022-08-28T06:02:44.026Z,9.747222
2022-08-28T06:03:44.047Z,9.747223
2022-08-28T06:04:44.035Z,9.747247
2022-08-28T06:05:43.999Z,9.747123
2022-08-28T06:06:43.999Z,9.747327
2022-08-28T06:07:43.983Z,9.747162
2022-08-28T06:08:58.392Z,9.747226
2022-08-28T06:09:44.999Z,9.747134
2022-08-28T06:10:43.965Z,9.747288
2022-08-28T06:11:46.124Z,9.747313
2022-08-28T06:12:43.953Z,9.747375
2022-08-28T06:13:43.950Z,9.747436
2022-08-28T06:14:43.967Z,9.747322
2022-08-28T06:15:44.028Z,9.747212
2022-08-28T06:16:43.924Z,9.747196
2022-08-28T06:17:43.919Z,9.747257
2022-08-28T06:18:43.918Z,9.747349
2022-08-28T06:19:43.928Z,9.747361
2022-08-28T06:20:43.892Z,9.747353
2022-08-28T06:21:43.889Z,9.747350
2022-08-28T06:22:43.875Z,9.747370
2022-08-28T06:23:43.873Z,9.747393
2022-08-28T06:24:43.895Z,9.747300
2022-08-28T06:25:43.873Z,9.747321
2022-08-28T06:26:43.849Z,9.747361
2022-08-28T06:27:43.839Z,9.747345
2022-08-28T06:28:43.843Z,9.747381
2022-08-28T06:29:43.846Z,9.747389
2022-08-28T06:31:02.714Z,9.747358
2022-08-28T06:31:45.843Z,9.747239
2022-08-28T06:32:43.803Z,9.747254
2022-08-28T06:33:43.791Z,9.747340
2022-08-28T06:34:43.826Z,9.747237
2022-08-28T06:35:43.787Z,9.747482
2022-08-28T06:36:43.770Z,9.747556
2022-08-28T06:37:43.761Z,9.747375
2022-08-28T06:38:43.762Z,9.747409
2022-08-28T06:39:43.773Z,9.747396
2022-08-28T06:40:43.740Z,9.747364
2022-08-28T06:41:43.732Z,9.747504
2022-08-28T06:42:43.743Z,9.747356
2022-08-28T06:43:43.717Z,9.747366
2022-08-28T06:44:43.744Z,9.747418
2022-08-28T06:45:43.718Z,9.747259
2022-08-28T06:46:43.700Z,9.747325
2022-08-28T06:47:43.701Z,9.747379
2022-08-28T06:48:43.678Z,9.747403
2022-08-28T06:49:43.701Z,9.747397
2022-08-28T06:50:43.666Z,9.747467
2022-08-28T06:51:43.660Z,9.747312
2022-08-28T06:52:43.645Z,9.747375
2022-08-28T06:53:43.646Z,9.747351
2022-08-28T06:54:55.371Z,9.747340
2022-08-28T06:55:44.627Z,9.747308
2022-08-28T06:56:43.625Z,9.747305
2022-08-28T06:57:43.616Z,9.747404
2022-08-28T06:58:50.150Z,9.747365
2022-08-28T06:59:44.626Z,9.747381
2022-08-28T07:00:43.593Z,9.747302
2022-08-28T07:01:43.642Z,9.747236
2022-08-28T07:02:43.601Z,9.747363
2022-08-28T07:03:44.369Z,9.747317
2022-08-28T07:04:43.588Z,9.747218
2022-08-28T07:05:43.551Z,9.747370
2022-08-28T07:06:43.547Z,9.747371
2022-08-28T07:07:43.545Z,9.747358
2022-08-28T07:08:43.533Z,9.747351
2022-08-28T07:09:43.562Z,9.747428
2022-08-28T07:10:43.526Z,9.747468
2022-08-28T07:11:43.516Z,9.747487
2022-08-28T07:12:43.497Z,9.747298
2022-08-28T07:13:43.503Z,9.747363
2022-08-28T07:14:43.527Z,9.747374
2022-08-28T07:15:43.522Z,9.747384
2022-08-28T07:16:43.471Z,9.747354
2022-08-28T07:17:43.475Z,9.747329
2022-08-28T07:18:43.466Z,9.747380
2022-08-28T07:19:43.456Z,9.747351
2022-08-28T07:20:43.467Z,9.747338
2022-08-28T07:21:43.539Z,9.747379
2022-08-28T07:22:43.417Z,9.747446
2022-08-28T07:23:43.419Z,9.747313
2022-08-28T07:24:43.414Z,9.747299
2022-08-28T07:25:43.435Z,9.747319
2022-08-28T07:26:43.400Z,9.747347
2022-08-28T07:27:43.397Z,9.747450
2022-08-28T07:28:43.386Z,9.747361
2022-08-28T07:29:43.400Z,9.747377
2022-08-28T07:30:43.469Z,9.747390
2022-08-28T07:31:43.359Z,9.747402
2022-08-28T07:32:43.354Z,9.747415
2022-08-28T07:33:43.345Z,9.747510
2022-08-28T07:34:43.386Z,9.747441
2022-08-28T07:35:43.334Z,9.747398
2022-08-28T07:36:43.329Z,9.747393
2022-08-28T07:37:43.308Z,9.747385
2022-08-28T07:38:43.322Z,9.747399
2022-08-28T07:39:43.326Z,9.747325
2022-08-28T07:40:43.284Z,9.747385
2022-08-28T07:41:43.329Z,9.747354
2022-08-28T07:42:43.267Z,9.747342
2022-08-28T07:43:43.260Z,9.747476
2022-08-28T07:44:43.278Z,9.747448
2022-08-28T07:45:43.306Z,9.747273
2022-08-28T07:46:43.242Z,9.747346
2022-08-28T07:47:43.237Z,9.747382
2022-08-28T07:48:43.224Z,9.747345
2022-08-28T07:49:43.245Z,9.747311
2022-08-28T07:50:43.227Z,9.747358
2022-08-28T07:51:43.259Z,9.747373
2022-08-28T07:52:43.232Z,9.747283
2022-08-28T07:53:43.196Z,9.747330
2022-08-28T07:54:43.203Z,9.747312
2022-08-28T07:55:43.172Z,9.747345
2022-08-28T07:56:43.161Z,9.747385
2022-08-28T07:58:16.048Z,9.747260
2022-08-28T07:58:43.144Z,9.747246
2022-08-28T07:59:43.171Z,9.747282
2022-08-28T08:00:43.148Z,9.747474
2022-08-28T08:01:43.203Z,9.747530
2022-08-28T08:02:43.128Z,9.747508
2022-08-28T08:03:43.215Z,9.747508
2022-08-28T08:04:43.135Z,9.747488
2022-08-28T08:05:43.094Z,9.747458
2022-08-28T08:06:43.082Z,9.747527
2022-08-28T08:07:43.907Z,9.747535
2022-08-28T08:08:43.069Z,9.747519
2022-08-28T08:09:43.096Z,9.747396
2022-08-28T08:10:43.056Z,9.747365
2022-08-28T08:11:43.048Z,9.747522
2022-08-28T08:12:43.034Z,9.747455
2022-08-28T08:13:43.031Z,9.747355
2022-08-28T08:14:43.052Z,9.747458
2022-08-28T08:15:44.000Z,9.747609
2022-08-28T08:16:43.006Z,9.747560
2022-08-28T08:17:43.003Z,9.747586
2022-08-28T08:18:42.990Z,9.747622
2022-08-28T08:19:43.030Z,9.747387
2022-08-28T08:20:42.977Z,9.747500
2022-08-28T08:21:42.968Z,9.747745
2022-08-28T08:22:42.962Z,9.747193
2022-08-28T08:23:42.964Z,9.747355
2022-08-28T08:24:42.978Z,9.747403
2022-08-28T08:25:42.932Z,9.747474
2022-08-28T08:26:42.929Z,9.747448
2022-08-28T08:27:43.235Z,9.747334
2022-08-28T08:28:43.951Z,9.747310
2022-08-28T08:29:42.904Z,9.747334
2022-08-28T08:30:42.947Z,9.747486
2022-08-28T08:31:42.891Z,9.747287
2022-08-28T08:32:43.022Z,9.747192
2022-08-28T08:33:42.877Z,9.747404
2022-08-28T08:34:42.866Z,9.747545
2022-08-28T08:35:42.883Z,9.747476
2022-08-28T08:36:42.848Z,9.747396
2022-08-28T08:37:42.841Z,9.747387
2022-08-28T08:38:42.832Z,9.747420
2022-08-28T08:39:42.823Z,9.747481
2022-08-28T08:40:43.742Z,9.747293
2022-08-28T08:41:42.810Z,9.747369
2022-08-28T08:42:42.806Z,9.747468
2022-08-28T08:43:42.798Z,9.747482
2022-08-28T08:44:42.792Z,9.747503
2022-08-28T08:45:42.802Z,9.747515
2022-08-28T08:46:42.845Z,9.747390
2022-08-28T08:47:42.767Z,9.747432
2022-08-28T08:48:42.759Z,9.747634
2022-08-28T08:49:42.755Z,9.747495
2022-08-28T08:50:42.791Z,9.747365
2022-08-28T08:51:42.739Z,9.747367
2022-08-28T08:52:42.739Z,9.747496
2022-08-28T08:53:42.753Z,9.747674
2022-08-28T08:54:42.739Z,9.747480
2022-08-28T08:55:42.737Z,9.747517
2022-08-28T08:56:42.713Z,9.747704
2022-08-28T08:57:42.691Z,9.747489
2022-08-28T08:58:42.701Z,9.747376
2022-08-28T08:59:42.678Z,9.747397
2022-08-28T09:00:42.691Z,9.747364
2022-08-28T09:01:42.697Z,9.747375
2022-08-28T09:02:42.794Z,9.747484
2022-08-28T09:03:44.266Z,9.747465
2022-08-28T09:04:42.635Z,9.747519
2022-08-28T09:05:42.650Z,9.747428
2022-08-28T09:06:42.617Z,9.747360
2022-08-28T09:07:42.624Z,9.747417
2022-08-28T09:08:42.605Z,9.747467
2022-08-28T09:09:42.605Z,9.747530
2022-08-28T09:10:42.628Z,9.747536
2022-08-28T09:11:42.583Z,9.747519
2022-08-28T09:12:42.581Z,9.747443
2022-08-28T09:13:42.564Z,9.747527
2022-08-28T09:14:42.561Z,9.747493
2022-08-28T09:15:42.776Z,9.747522
2022-08-28T09:16:42.546Z,9.747499
2022-08-28T09:17:42.627Z,9.747427
2022-08-28T09:18:42.528Z,9.747463
2022-08-28T09:19:42.554Z,9.747452
2022-08-28T09:20:42.515Z,9.747497
2022-08-28T09:21:42.507Z,9.747459
2022-08-28T09:22:42.500Z,9.747627
2022-08-28T09:23:42.489Z,9.747552
2022-08-28T09:24:42.512Z,9.747506
2022-08-28T09:25:42.475Z,9.747480
2022-08-28T09:26:42.463Z,9.747456
2022-08-28T09:27:42.567Z,9.747545
2022-08-28T09:28:42.450Z,9.747510
2022-08-28T09:29:42.442Z,9.747415
2022-08-28T09:30:42.530Z,9.747414
2022-08-28T09:31:42.435Z,9.747408
2022-08-28T09:32:42.567Z,9.747441
2022-08-28T09:33:42.411Z,9.747467
2022-08-28T09:34:42.425Z,9.747421
2022-08-28T09:35:42.431Z,9.747518
2022-08-28T09:36:42.403Z,9.747478
2022-08-28T09:37:42.390Z,9.747481
2022-08-28T09:38:42.379Z,9.747500
2022-08-28T09:39:45.590Z,9.747549
2022-08-28T09:40:43.423Z,9.747477
2022-08-28T09:41:42.361Z,9.747437
2022-08-28T09:42:42.409Z,9.747426
2022-08-28T09:43:42.339Z,9.747479
2022-08-28T09:44:42.371Z,9.747425
2022-08-28T09:45:42.349Z,9.747453
2022-08-28T09:46:42.360Z,9.747481
2022-08-28T09:47:46.782Z,9.747381
2022-08-28T09:48:42.303Z,9.747459
2022-08-28T09:49:42.311Z,9.747502
2022-08-28T09:50:42.311Z,9.747434
2022-08-28T09:51:42.278Z,9.747444
2022-08-28T09:52:42.324Z,9.747456
2022-08-28T09:53:42.261Z,9.747404
2022-08-28T09:54:42.255Z,9.747416
2022-08-28T09:55:42.277Z,9.747432
2022-08-28T09:56:42.239Z,9.747511
2022-08-28T09:57:42.236Z,9.747488
2022-08-28T09:58:42.228Z,9.747475
2022-08-28T09:59:42.223Z,9.747491
2022-08-28T10:00:42.263Z,9.747532
2022-08-28T10:01:44.835Z,9.747572
2022-08-28T10:02:42.203Z,9.747451
2022-08-28T10:03:42.212Z,9.747472
2022-08-28T10:04:42.224Z,9.747486
2022-08-28T10:05:42.199Z,9.747787
2022-08-28T10:06:43.699Z,9.747804
2022-08-28T10:07:42.159Z,9.747737
2022-08-28T10:08:42.143Z,9.747540
2022-08-28T10:09:47.872Z,9.747553
2022-08-28T10:10:43.150Z,9.747451
2022-08-28T10:11:44.387Z,9.747326
2022-08-28T10:12:43.119Z,9.747350
2022-08-28T10:13:42.104Z,9.747396
2022-08-28T10:14:42.101Z,9.747459
2022-08-28T10:15:43.560Z,9.747465
2022-08-28T10:16:43.085Z,9.747500
2022-08-28T10:17:42.088Z,9.747349
2022-08-28T10:18:42.071Z,9.747414
2022-08-28T10:19:42.067Z,9.747412
2022-08-28T10:20:42.087Z,9.747380
2022-08-28T10:21:42.048Z,9.747421
2022-08-28T10:22:42.054Z,9.747499
2022-08-28T10:23:42.122Z,9.747514
2022-08-28T10:24:42.031Z,9.747560
2022-08-28T10:25:42.042Z,9.747504
2022-08-28T10:26:41.997Z,9.747392
2022-08-28T10:27:43.017Z,9.747524
2022-08-28T10:28:41.996Z,9.747409
2022-08-28T10:29:41.992Z,9.747491
2022-08-28T10:30:42.033Z,9.747487
2022-08-28T10:31:41.980Z,9.747484
2022-08-28T10:32:41.979Z,9.747461
2022-08-28T10:33:41.953Z,9.747410
2022-08-28T10:34:41.963Z,9.747402
2022-08-28T10:35:41.976Z,9.747416
2022-08-28T10:36:41.936Z,9.747426
2022-08-28T10:37:41.927Z,9.747331
2022-08-28T10:38:41.921Z,9.747444
2022-08-28T10:39:41.928Z,9.747495
2022-08-28T10:40:42.148Z,9.747592
2022-08-28T10:41:42.519Z,9.747384
2022-08-28T10:42:41.907Z,9.747310
2022-08-28T10:43:41.952Z,9.747346
2022-08-28T10:44:41.880Z,9.747582
2022-08-28T10:45:41.883Z,9.747441
2022-08-28T10:46:41.911Z,9.747491
2022-08-28T10:47:41.850Z,9.747548
2022-08-28T10:48:41.919Z,9.747486
2022-08-28T10:49:41.853Z,9.747452
2022-08-28T10:50:41.859Z,9.747571
2022-08-28T10:51:44.276Z,9.747540
2022-08-28T10:52:42.813Z,9.747452
2022-08-28T10:53:41.799Z,9.747489
2022-08-28T10:54:41.793Z,9.747422
2022-08-28T10:55:41.818Z,9.747361
2022-08-28T10:56:41.785Z,9.747235
2022-08-28T10:57:41.777Z,9.747398
2022-08-28T10:58:41.879Z,9.747244
2022-08-28T10:59:42.387Z,9.747375
2022-08-28T11:00:41.785Z,9.747217
2022-08-28T11:01:41.890Z,9.747417
2022-08-28T11:02:41.781Z,9.747376
2022-08-28T11:03:41.730Z,9.747243
2022-08-28T11:04:41.723Z,9.747266
2022-08-28T11:05:49.432Z,9.747371
2022-08-28T11:06:42.704Z,9.747557
2022-08-28T11:07:41.702Z,9.747504
2022-08-28T11:08:41.687Z,9.747415
2022-08-28T11:09:41.690Z,9.747356
2022-08-28T11:10:41.711Z,9.747315
2022-08-28T11:11:41.668Z,9.747411
2022-08-28T11:12:41.661Z,9.747462
2022-08-28T11:13:41.649Z,9.747372
2022-08-28T11:14:47.717Z,9.747308
2022-08-28T11:15:42.662Z,9.747295
2022-08-28T11:16:41.676Z,9.747330
2022-08-28T11:17:41.626Z,9.747330
2022-08-28T11:18:41.621Z,9.747375
2022-08-28T11:19:44.505Z,9.747326
2022-08-28T11:20:42.629Z,9.747418
2022-08-28T11:21:41.611Z,9.747369
2022-08-28T11:22:41.610Z,9.747333
2022-08-28T11:23:41.580Z,9.747476
2022-08-28T11:24:43.811Z,9.747259
2022-08-28T11:25:41.588Z,9.747359
2022-08-28T11:26:41.562Z,9.747338
2022-08-28T11:27:41.555Z,9.747395
2022-08-28T11:28:42.199Z,9.747383
2022-08-28T11:29:41.531Z,9.747322
2022-08-28T11:30:41.685Z,9.747411
2022-08-28T11:31:41.518Z,9.747454
2022-08-28T11:32:47.228Z,9.747437
2022-08-28T11:33:42.501Z,9.747413
2022-08-28T11:34:41.491Z,9.747442
2022-08-28T11:35:41.523Z,9.747463
2022-08-28T11:36:41.481Z,9.747507
2022-08-28T11:37:41.473Z,9.747490
2022-08-28T11:38:41.466Z,9.747434
2022-08-28T11:39:41.454Z,9.747403
2022-08-28T11:40:41.520Z,9.747355
2022-08-28T11:41:41.466Z,9.747367
2022-08-28T11:42:41.450Z,9.747289
2022-08-28T11:43:41.423Z,9.747276
2022-08-28T11:44:41.424Z,9.747355